createdAt,value
2023-02-09T00:00:49.324Z,-8.23
2023-02-09T00:03:23.545Z,-8.32
2023-02-09T00:05:52.143Z,-8.37
2023-02-09T00:08:45.918Z,-8.41
2023-02-09T00:11:46.996Z,-8.46
2023-02-09T00:14:22.084Z,-8.47
2023-02-09T00:16:52.808Z,-8.49
2023-02-09T00:19:22.106Z,-8.54
2023-02-09T00:21:50.572Z,-8.61
2023-02-09T00:24:19.024Z,-8.62
2023-02-09T00:26:47.488Z,-8.67
2023-02-09T00:29:22.472Z,-8.65
2023-02-09T00:31:52.026Z,-8.59
2023-02-09T00:34:20.462Z,-8.64
2023-02-09T00:36:49.689Z,-8.70
2023-02-09T00:39:18.074Z,-8.65
2023-02-09T00:42:05.360Z,-8.57
2023-02-09T00:44:36.086Z,-8.55
2023-02-09T00:47:05.987Z,-8.53
2023-02-09T00:49:34.861Z,-8.53
2023-02-09T00:52:03.424Z,-8.51
2023-02-09T00:54:32.639Z,-8.49
2023-02-09T00:57:05.399Z,-8.41
2023-02-09T00:59:35.967Z,-8.46
2023-02-09T01:02:04.468Z,-8.48
2023-02-09T01:04:33.510Z,-8.52
2023-02-09T01:07:01.994Z,-8.58
2023-02-09T01:09:30.914Z,-8.64
2023-02-09T01:11:59.767Z,-8.68
2023-02-09T01:14:28.168Z,-8.73
2023-02-09T01:16:56.526Z,-8.80
2023-02-09T01:19:27.478Z,-8.86
2023-02-09T01:21:56.585Z,-8.93
2023-02-09T01:24:24.888Z,-8.97
2023-02-09T01:26:53.279Z,-8.96
2023-02-09T01:29:22.197Z,-8.95
2023-02-09T01:31:50.615Z,-8.93
2023-02-09T01:34:20.227Z,-8.88
2023-02-09T01:36:51.022Z,-8.77
2023-02-09T01:39:19.443Z,-8.65
2023-02-09T01:41:47.818Z,-8.54
2023-02-09T01:44:17.087Z,-8.47
2023-02-09T01:46:48.292Z,-8.47
2023-02-09T01:49:18.439Z,-8.53
2023-02-09T01:51:56.101Z,-8.52
2023-02-09T01:54:33.138Z,-8.57
2023-02-09T01:57:10.276Z,-8.64
2023-02-09T01:59:42.120Z,-8.72
2023-02-09T02:02:12.006Z,-8.80
2023-02-09T02:04:42.285Z,-8.87
2023-02-09T02:07:17.202Z,-8.93
2023-02-09T02:09:46.477Z,-8.99
2023-02-09T02:12:16.041Z,-9.00
2023-02-09T02:14:44.341Z,-8.98
2023-02-09T02:17:40.569Z,-8.93
2023-02-09T02:20:33.864Z,-8.83
2023-02-09T02:23:35.467Z,-8.81
2023-02-09T02:26:31.180Z,-8.77
2023-02-09T02:29:27.452Z,-8.70
2023-02-09T02:32:26.192Z,-8.67
2023-02-09T02:35:20.090Z,-8.63
2023-02-09T02:37:48.504Z,-8.58
2023-02-09T02:40:29.442Z,-8.61
2023-02-09T02:43:13.106Z,-8.69
2023-02-09T02:45:47.504Z,-8.69
2023-02-09T02:48:31.213Z,-8.75
2023-02-09T02:51:07.928Z,-8.83
2023-02-09T02:53:40.045Z,-8.95
2023-02-09T02:56:40.605Z,-9.11
2023-02-09T02:59:14.434Z,-9.32
2023-02-09T03:02:01.110Z,-9.45
2023-02-09T03:04:31.445Z,-9.57
2023-02-09T03:06:59.874Z,-9.66
2023-02-09T03:09:28.227Z,-9.73
2023-02-09T03:12:02.821Z,-9.74
2023-02-09T03:14:51.778Z,-9.74
2023-02-09T03:17:55.184Z,-9.76
2023-02-09T03:20:31.280Z,-9.75
2023-02-09T03:23:03.125Z,-9.71
2023-02-09T03:25:42.096Z,-9.76
2023-02-09T03:28:23.042Z,-9.75
2023-02-09T03:30:53.033Z,-9.78
2023-02-09T03:33:28.927Z,-9.73
2023-02-09T03:36:00.536Z,-9.69
2023-02-09T03:38:29.053Z,-9.70
2023-02-09T03:40:57.430Z,-9.77
2023-02-09T03:43:45.801Z,-9.84
2023-02-09T03:46:14.188Z,-9.94
2023-02-09T03:48:42.573Z,-10.01
2023-02-09T03:51:10.968Z,-10.08
2023-02-09T03:53:39.332Z,-10.13
2023-02-09T03:56:10.475Z,-10.17
2023-02-09T03:58:39.813Z,-10.19
2023-02-09T04:01:10.204Z,-10.19
2023-02-09T04:03:40.113Z,-10.18
2023-02-09T04:06:10.163Z,-10.15
2023-02-09T04:08:38.468Z,-10.10
2023-02-09T04:11:06.859Z,-10.10
2023-02-09T04:13:35.476Z,-10.14
2023-02-09T04:16:04.023Z,-10.15
2023-02-09T04:18:32.303Z,-10.17
2023-02-09T04:21:00.858Z,-10.20
2023-02-09T04:23:29.192Z,-10.17
2023-02-09T04:25:57.511Z,-10.08
2023-02-09T04:28:25.882Z,-9.98
2023-02-09T04:30:55.847Z,-9.89
2023-02-09T04:33:25.192Z,-9.83
2023-02-09T04:35:53.572Z,-9.79
2023-02-09T04:38:22.524Z,-9.71
2023-02-09T04:40:52.918Z,-9.74
2023-02-09T04:43:22.427Z,-9.71
2023-02-09T04:45:51.144Z,-9.64
2023-02-09T04:48:21.911Z,-9.58
2023-02-09T04:50:51.203Z,-9.58
2023-02-09T04:53:20.392Z,-9.71
2023-02-09T04:55:51.554Z,-9.82
2023-02-09T04:58:39.735Z,-9.96
2023-02-09T05:01:12.202Z,-10.11
2023-02-09T05:03:41.921Z,-10.20
2023-02-09T05:06:10.275Z,-10.28
2023-02-09T05:08:38.624Z,-10.32
2023-02-09T05:11:07.116Z,-10.32
2023-02-09T05:13:35.424Z,-10.32
2023-02-09T05:16:09.391Z,-10.32
2023-02-09T05:18:46.808Z,-10.27
2023-02-09T05:21:58.614Z,-10.24
2023-02-09T05:24:38.051Z,-10.21
2023-02-09T05:27:08.930Z,-10.19
2023-02-09T05:29:37.352Z,-10.20
2023-02-09T05:32:05.823Z,-10.20
2023-02-09T05:34:34.200Z,-10.25
2023-02-09T05:37:02.562Z,-10.26
2023-02-09T05:39:30.864Z,-10.25
2023-02-09T05:42:17.375Z,-10.27
2023-02-09T05:44:51.015Z,-10.24
2023-02-09T05:47:21.695Z,-10.18
2023-02-09T05:49:51.176Z,-10.11
2023-02-09T05:52:20.915Z,-10.04
2023-02-09T05:54:49.705Z,-10.06
2023-02-09T05:57:18.553Z,-10.04
2023-02-09T05:59:46.875Z,-9.96
2023-02-09T06:02:15.273Z,-9.97
2023-02-09T06:04:43.815Z,-10.02
2023-02-09T06:07:12.235Z,-10.04
2023-02-09T06:09:40.584Z,-10.06
2023-02-09T06:12:08.981Z,-10.07
2023-02-09T06:14:37.225Z,-10.09
2023-02-09T06:17:05.542Z,-10.11
2023-02-09T06:19:33.959Z,-10.11
2023-02-09T06:22:04.538Z,-10.16
2023-02-09T06:24:41.673Z,-10.12
2023-02-09T06:27:13.146Z,-10.10
2023-02-09T06:29:41.523Z,-10.11
2023-02-09T06:32:09.912Z,-10.04
2023-02-09T06:34:43.656Z,-9.92
2023-02-09T06:37:12.004Z,-9.88
2023-02-09T06:39:40.424Z,-9.90
2023-02-09T06:42:08.923Z,-9.90
2023-02-09T06:44:37.562Z,-9.86
2023-02-09T06:47:09.065Z,-9.80
2023-02-09T06:49:38.204Z,-9.68
2023-02-09T06:52:06.969Z,-9.63
2023-02-09T06:54:38.446Z,-9.57
2023-02-09T06:57:08.388Z,-9.47
2023-02-09T06:59:36.609Z,-9.35
2023-02-09T07:02:04.969Z,-9.24
2023-02-09T07:04:34.392Z,-9.15
2023-02-09T07:07:02.796Z,-9.08
2023-02-09T07:09:31.359Z,-8.95
2023-02-09T07:12:00.128Z,-8.80
2023-02-09T07:14:28.720Z,-8.69
2023-02-09T07:16:57.547Z,-8.57
2023-02-09T07:19:26.433Z,-8.46
2023-02-09T07:21:55.085Z,-8.32
2023-02-09T07:24:24.535Z,-8.20
2023-02-09T07:26:54.227Z,-8.09
2023-02-09T07:32:51.679Z,-7.83
2023-02-09T07:35:20.764Z,-7.72
2023-02-09T07:37:52.062Z,-7.55
2023-02-09T07:40:25.165Z,-7.42
2023-02-09T07:42:53.564Z,-7.30
2023-02-09T07:45:23.952Z,-7.20
2023-02-09T07:48:03.553Z,-7.06
2023-02-09T07:50:32.368Z,-6.90
2023-02-09T07:53:00.926Z,-6.77
2023-02-09T07:55:29.472Z,-6.64
2023-02-09T07:58:10.579Z,-6.49
2023-02-09T08:00:56.086Z,-6.27
2023-02-09T08:03:30.473Z,-6.10
2023-02-09T08:06:56.059Z,-5.89
2023-02-09T08:10:01.346Z,-5.58
2023-02-09T08:12:57.072Z,-5.38
2023-02-09T08:15:48.310Z,-5.19
2023-02-09T08:18:47.405Z,-5.03
2023-02-09T08:21:20.358Z,-4.84
2023-02-09T08:23:53.499Z,-4.66
2023-02-09T08:26:22.127Z,-4.50
2023-02-09T08:28:53.212Z,-4.33
2023-02-09T08:31:22.442Z,-4.16
2023-02-09T08:33:51.625Z,-4.01
2023-02-09T08:36:20.974Z,-3.88
2023-02-09T08:38:52.723Z,-3.74
2023-02-09T08:41:21.096Z,-3.59
2023-02-09T08:43:52.202Z,-3.45
2023-02-09T08:46:21.035Z,-3.32
2023-02-09T08:48:49.666Z,-3.20
2023-02-09T08:51:18.600Z,-3.05
2023-02-09T08:53:52.682Z,-2.86
2023-02-09T08:56:22.448Z,-2.63
2023-02-09T08:58:52.632Z,-2.43
2023-02-09T09:01:21.142Z,-2.22
2023-02-09T09:03:49.662Z,-2.05
2023-02-09T09:06:18.227Z,-1.87
2023-02-09T09:08:46.689Z,-1.67
2023-02-09T09:11:15.202Z,-1.51
2023-02-09T09:13:44.029Z,-1.35
2023-02-09T09:16:21.635Z,-1.17
2023-02-09T09:18:50.754Z,-0.98
2023-02-09T09:21:20.148Z,-0.81
2023-02-09T09:23:48.820Z,-0.62
2023-02-09T09:26:18.153Z,-0.40
2023-02-09T09:28:51.120Z,-0.17
2023-02-09T09:31:19.866Z,0.05
2023-02-09T09:33:48.448Z,0.29
2023-02-09T09:36:16.908Z,0.57
2023-02-09T09:38:45.301Z,0.83
2023-02-09T09:41:32.030Z,1.02
2023-02-09T09:44:02.462Z,1.20
2023-02-09T09:46:38.360Z,1.34
2023-02-09T09:49:18.816Z,1.40
2023-02-09T09:51:53.980Z,1.38
2023-02-09T09:54:24.667Z,1.54
2023-02-09T09:56:57.593Z,1.77
2023-02-09T09:59:30.908Z,1.95
2023-02-09T10:02:04.021Z,2.11
2023-02-09T10:04:33.658Z,2.22
2023-02-09T10:07:10.540Z,2.40
2023-02-09T10:10:07.238Z,2.58
2023-02-09T10:12:44.238Z,2.78
2023-02-09T10:15:38.433Z,2.90
2023-02-09T10:18:14.921Z,2.89
2023-02-09T10:20:46.160Z,2.82
2023-02-09T10:23:41.372Z,2.81
2023-02-09T10:26:09.795Z,2.85
2023-02-09T10:28:41.969Z,2.84
2023-02-09T10:31:52.157Z,2.84
2023-02-09T10:34:25.832Z,2.96
2023-02-09T10:37:05.154Z,3.11
2023-02-09T10:39:35.636Z,3.25
2023-02-09T10:42:24.523Z,3.47
2023-02-09T10:44:56.021Z,3.68
2023-02-09T10:47:29.711Z,3.79
2023-02-09T10:50:17.816Z,3.76
2023-02-09T10:53:01.688Z,3.64
2023-02-09T10:55:52.166Z,3.64
2023-02-09T10:58:30.439Z,3.87
2023-02-09T11:01:08.462Z,4.10
2023-02-09T11:04:04.989Z,4.25
2023-02-09T11:06:49.087Z,4.23
2023-02-09T11:09:31.725Z,4.21
2023-02-09T11:12:01.111Z,4.21
2023-02-09T11:14:31.827Z,4.28
2023-02-09T11:17:13.685Z,4.31
2023-02-09T11:20:04.921Z,4.50
2023-02-09T11:22:51.334Z,4.66
2023-02-09T11:25:41.405Z,4.61
2023-02-09T11:28:22.423Z,4.57
2023-02-09T11:31:21.997Z,4.53
2023-02-09T11:34:02.895Z,4.52
2023-02-09T11:36:41.572Z,4.54
2023-02-09T11:39:19.445Z,4.52
2023-02-09T11:42:23.289Z,4.49
2023-02-09T11:45:00.856Z,4.42
2023-02-09T11:47:46.110Z,4.45
2023-02-09T11:50:38.075Z,4.64
2023-02-09T11:53:16.454Z,4.71
2023-02-09T11:55:56.685Z,4.73
2023-02-09T11:58:31.178Z,4.72
2023-02-09T12:01:33.186Z,4.67
2023-02-09T12:04:20.101Z,4.91
2023-02-09T12:06:55.128Z,5.06
2023-02-09T12:09:31.176Z,5.08
2023-02-09T12:12:06.028Z,5.08
2023-02-09T12:14:53.403Z,5.27
2023-02-09T12:17:49.757Z,5.65
2023-02-09T12:20:30.138Z,5.94
2023-02-09T12:23:11.065Z,6.26
2023-02-09T12:25:59.987Z,6.56
2023-02-09T12:28:33.029Z,6.84
2023-02-09T12:31:16.979Z,7.05
2023-02-09T12:33:58.529Z,7.27
2023-02-09T12:37:01.333Z,7.43
2023-02-09T12:39:30.152Z,7.54
2023-02-09T12:42:01.619Z,7.66
2023-02-09T12:44:30.066Z,7.79
2023-02-09T12:47:03.611Z,7.89
2023-02-09T12:49:41.723Z,8.01
2023-02-09T12:56:28.127Z,8.20
2023-02-09T12:59:17.714Z,8.21
2023-02-09T13:02:08.345Z,8.22
2023-02-09T13:04:51.640Z,8.00
2023-02-09T13:07:33.902Z,7.77
2023-02-09T13:10:49.772Z,7.38
2023-02-09T13:14:30.819Z,6.94
2023-02-09T13:17:42.128Z,6.87
2023-02-09T13:20:17.605Z,6.93
2023-02-09T13:23:18.108Z,6.93
2023-02-09T13:26:34.432Z,6.85
2023-02-09T13:29:21.413Z,6.85
2023-02-09T13:32:02.352Z,6.74
2023-02-09T13:34:52.360Z,6.56
2023-02-09T13:37:56.445Z,6.36
2023-02-09T13:40:29.800Z,6.08
2023-02-09T13:43:04.217Z,5.90
2023-02-09T13:45:33.033Z,5.81
2023-02-09T13:48:04.294Z,5.67
2023-02-09T13:50:33.535Z,5.60
2023-02-09T13:53:14.043Z,5.41
2023-02-09T13:55:45.645Z,5.18
2023-02-09T13:58:20.196Z,4.99
2023-02-09T14:00:56.309Z,4.77
2023-02-09T14:03:49.664Z,4.61
2023-02-09T14:06:29.549Z,4.47
2023-02-09T14:09:20.725Z,4.34
2023-02-09T14:12:01.107Z,4.22
2023-02-09T14:14:57.608Z,4.06
2023-02-09T14:17:30.301Z,3.88
2023-02-09T14:20:22.612Z,3.73
2023-02-09T14:23:00.302Z,3.57
2023-02-09T14:25:32.719Z,3.47
2023-02-09T14:28:05.498Z,3.37
2023-02-09T14:30:59.341Z,3.31
2023-02-09T14:33:57.132Z,3.17
2023-02-09T14:36:29.657Z,3.05
2023-02-09T14:39:26.003Z,2.96
2023-02-09T14:42:27.564Z,2.86
2023-02-09T14:45:06.241Z,2.76
2023-02-09T14:47:51.011Z,2.66
2023-02-09T14:50:24.717Z,2.58
2023-02-09T14:53:17.127Z,2.52
2023-02-09T14:55:52.563Z,2.47
2023-02-09T14:59:02.750Z,2.39
2023-02-09T15:01:56.018Z,2.30
2023-02-09T15:04:24.691Z,2.27
2023-02-09T15:07:01.981Z,2.25
2023-02-09T15:09:35.033Z,2.21
2023-02-09T15:12:08.016Z,2.13
2023-02-09T15:14:44.840Z,2.08
2023-02-09T15:17:13.969Z,2.02
2023-02-09T15:19:43.107Z,1.94
2023-02-09T15:22:16.470Z,1.82
2023-02-09T15:24:47.433Z,1.69
2023-02-09T15:27:24.862Z,1.53
2023-02-09T15:29:55.823Z,1.39
2023-02-09T15:32:26.554Z,1.25
2023-02-09T15:34:55.068Z,1.10
2023-02-09T15:37:31.945Z,0.96
2023-02-09T15:40:24.520Z,0.82
2023-02-09T15:43:14.740Z,0.65
2023-02-09T15:45:50.186Z,0.47
2023-02-09T15:48:18.815Z,0.29
2023-02-09T15:50:50.933Z,0.15
2023-02-09T15:53:22.027Z,-0.01
2023-02-09T15:55:50.500Z,-0.17
2023-02-09T15:58:24.340Z,-0.33
2023-02-09T16:00:52.850Z,-0.47
2023-02-09T16:03:22.050Z,-0.62
2023-02-09T16:05:56.093Z,-0.76
2023-02-09T16:08:31.175Z,-0.89
2023-02-09T16:11:01.709Z,-1.03
2023-02-09T16:13:30.311Z,-1.14
2023-02-09T16:16:14.757Z,-1.29
2023-02-09T16:18:46.771Z,-1.42
2023-02-09T16:21:34.040Z,-1.52
2023-02-09T16:24:05.042Z,-1.62
2023-02-09T16:26:34.515Z,-1.72
2023-02-09T16:29:11.068Z,-1.82
2023-02-09T16:31:39.752Z,-1.93
2023-02-09T16:34:09.633Z,-2.03
2023-02-09T16:36:40.433Z,-2.13
2023-02-09T16:39:19.009Z,-2.22
2023-02-09T16:41:50.838Z,-2.26
2023-02-09T16:44:19.636Z,-2.29
2023-02-09T16:46:51.951Z,-2.33
2023-02-09T16:49:32.164Z,-2.39
2023-02-09T16:52:21.492Z,-2.42
2023-02-09T16:54:58.734Z,-2.49
2023-02-09T16:57:31.742Z,-2.56
2023-02-09T17:00:00.477Z,-2.63
2023-02-09T17:02:43.165Z,-2.72
2023-02-09T17:05:51.431Z,-2.79
2023-02-09T17:08:32.832Z,-2.87
2023-02-09T17:11:44.477Z,-2.88
2023-02-09T17:14:15.567Z,-2.86
2023-02-09T17:16:49.840Z,-2.89
2023-02-09T17:19:18.478Z,-2.95
2023-02-09T17:21:47.092Z,-3.03
2023-02-09T17:24:27.871Z,-3.11
2023-02-09T17:27:04.021Z,-3.16
2023-02-09T17:29:48.992Z,-3.19
2023-02-09T17:32:22.400Z,-3.25
2023-02-09T17:34:59.137Z,-3.31
2023-02-09T17:37:27.850Z,-3.36
2023-02-09T17:40:01.895Z,-3.41
2023-02-09T17:42:37.710Z,-3.48
2023-02-09T17:45:34.402Z,-3.54
2023-02-09T17:48:06.416Z,-3.63
2023-02-09T17:50:43.057Z,-3.70
2023-02-09T17:53:32.997Z,-3.76
2023-02-09T17:56:16.317Z,-3.81
2023-02-09T17:58:51.915Z,-3.83
2023-02-09T18:01:32.766Z,-3.83
2023-02-09T18:04:05.038Z,-3.85
2023-02-09T18:06:39.918Z,-3.88
2023-02-09T18:09:12.545Z,-3.92
2023-02-09T18:14:49.923Z,-3.99
2023-02-09T18:17:19.417Z,-4.02
2023-02-09T18:19:48.502Z,-4.04
2023-02-09T18:22:18.008Z,-4.10
2023-02-09T18:24:47.874Z,-4.17
2023-02-09T18:27:24.868Z,-4.21
2023-02-09T18:29:54.605Z,-4.24
2023-02-09T18:32:24.255Z,-4.26
2023-02-09T18:34:56.201Z,-4.27
2023-02-09T18:37:27.783Z,-4.29
2023-02-09T18:39:56.928Z,-4.30
2023-02-09T18:42:25.631Z,-4.31
2023-02-09T18:44:54.499Z,-4.38
2023-02-09T18:47:27.556Z,-4.41
2023-02-09T18:49:56.260Z,-4.47
2023-02-09T18:52:27.187Z,-4.54
2023-02-09T18:54:55.914Z,-4.59
2023-02-09T18:57:24.541Z,-4.61
2023-02-09T18:59:53.221Z,-4.61
2023-02-09T19:02:25.192Z,-4.60
2023-02-09T19:05:07.259Z,-4.60
2023-02-09T19:07:37.348Z,-4.60
2023-02-09T19:10:08.924Z,-4.65
2023-02-09T19:12:39.933Z,-4.70
2023-02-09T19:15:10.780Z,-4.74
2023-02-09T19:17:43.403Z,-4.78
2023-02-09T19:20:22.343Z,-4.74
2023-02-09T19:22:53.616Z,-4.65
2023-02-09T19:25:25.090Z,-4.58
2023-02-09T19:27:57.867Z,-4.52
2023-02-09T19:30:26.796Z,-4.43
2023-02-09T19:32:59.020Z,-4.29
2023-02-09T19:35:32.415Z,-4.14
2023-02-09T19:38:06.876Z,-4.04
2023-02-09T19:40:37.323Z,-3.95
2023-02-09T19:43:07.635Z,-3.95
2023-02-09T19:45:45.693Z,-4.00
2023-02-09T19:48:16.774Z,-4.04
2023-02-09T19:50:55.426Z,-4.07
2023-02-09T19:53:27.159Z,-4.10
2023-02-09T19:55:56.048Z,-4.09
2023-02-09T19:58:25.006Z,-4.14
2023-02-09T20:00:56.772Z,-4.15
2023-02-09T20:03:30.266Z,-4.10
2023-02-09T20:06:01.530Z,-4.01
2023-02-09T20:08:30.682Z,-3.89
2023-02-09T20:11:02.818Z,-3.78
2023-02-09T20:13:31.734Z,-3.67
2023-02-09T20:16:10.845Z,-3.58
2023-02-09T20:18:41.428Z,-3.52
2023-02-09T20:21:10.816Z,-3.47
2023-02-09T20:23:39.539Z,-3.41
2023-02-09T20:26:23.655Z,-3.35
2023-02-09T20:28:59.438Z,-3.28
2023-02-09T20:31:35.018Z,-3.21
2023-02-09T20:34:11.004Z,-3.14
2023-02-09T20:36:41.556Z,-3.08
2023-02-09T20:39:16.678Z,-3.06
2023-02-09T20:42:09.402Z,-3.05
2023-02-09T20:44:57.625Z,-3.06
2023-02-09T20:47:26.708Z,-3.08
2023-02-09T20:50:00.953Z,-3.09
2023-02-09T20:52:57.197Z,-3.09
2023-02-09T20:55:32.438Z,-3.10
2023-02-09T20:58:05.136Z,-3.11
2023-02-09T21:00:36.676Z,-3.13
2023-02-09T21:03:08.474Z,-3.13
2023-02-09T21:05:37.281Z,-3.14
2023-02-09T21:08:10.278Z,-3.14
2023-02-09T21:10:45.759Z,-3.13
2023-02-09T21:13:16.879Z,-3.11
2023-02-09T21:15:45.912Z,-3.11
2023-02-09T21:18:17.784Z,-3.12
2023-02-09T21:21:18.374Z,-3.13
2023-02-09T21:23:50.463Z,-3.14
2023-02-09T21:26:22.806Z,-3.17
2023-02-09T21:29:01.583Z,-3.21
2023-02-09T21:31:32.711Z,-3.23
2023-02-09T21:34:01.282Z,-3.26
2023-02-09T21:36:30.453Z,-3.28
2023-02-09T21:38:59.450Z,-3.31
2023-02-09T21:41:46.722Z,-3.34
2023-02-09T21:44:18.349Z,-3.40
2023-02-09T21:46:54.131Z,-3.47
2023-02-09T21:49:24.712Z,-3.56
2023-02-09T21:51:55.606Z,-3.63
2023-02-09T21:54:26.209Z,-3.69
2023-02-09T21:56:56.033Z,-3.69
2023-02-09T21:59:24.687Z,-3.69
2023-02-09T22:01:56.043Z,-3.69
2023-02-09T22:04:24.620Z,-3.74
2023-02-09T22:06:53.219Z,-3.86
2023-02-09T22:09:23.512Z,-3.95
2023-02-09T22:11:52.521Z,-4.05
2023-02-09T22:14:21.176Z,-4.19
2023-02-09T22:16:49.826Z,-4.32
2023-02-09T22:19:18.430Z,-4.43
2023-02-09T22:21:47.061Z,-4.50
2023-02-09T22:24:16.821Z,-4.55
2023-02-09T22:26:47.209Z,-4.59
2023-02-09T22:29:18.844Z,-4.64
2023-02-09T22:31:47.468Z,-4.66
2023-02-09T22:34:16.625Z,-4.70
2023-02-09T22:36:45.163Z,-4.75
2023-02-09T22:39:13.753Z,-4.82
2023-02-09T22:41:45.691Z,-4.89
2023-02-09T22:44:15.699Z,-4.97
2023-02-09T22:46:46.376Z,-5.04
2023-02-09T22:49:22.933Z,-5.09
2023-02-09T22:51:51.389Z,-5.16
2023-02-09T22:54:20.850Z,-5.23
2023-02-09T22:56:49.808Z,-5.28
2023-02-09T22:59:18.392Z,-5.35
2023-02-09T23:01:47.812Z,-5.45
2023-02-09T23:04:16.376Z,-5.50
2023-02-09T23:06:45.457Z,-5.53
2023-02-09T23:09:14.681Z,-5.53
2023-02-09T23:11:46.786Z,-5.53
2023-02-09T23:14:16.501Z,-5.55
2023-02-09T23:16:46.018Z,-5.58
2023-02-09T23:19:17.800Z,-5.64
2023-02-09T23:21:49.272Z,-5.72
2023-02-09T23:24:22.209Z,-5.80
2023-02-09T23:26:52.037Z,-5.89
2023-02-09T23:29:21.195Z,-5.97
2023-02-09T23:31:49.944Z,-6.05
2023-02-09T23:34:21.556Z,-6.17
2023-02-09T23:36:50.300Z,-6.26
2023-02-09T23:39:22.843Z,-6.34
2023-02-09T23:41:51.184Z,-6.36
2023-02-09T23:44:19.927Z,-6.36
2023-02-09T23:46:48.540Z,-6.33
2023-02-09T23:49:16.807Z,-6.29
2023-02-09T23:51:46.766Z,-6.25
2023-02-09T23:54:15.018Z,-6.21
2023-02-09T23:56:44.454Z,-6.24
2023-02-09T23:59:15.609Z,-6.33
